createdAt,value
2022-10-08T00:01:48.968Z,101426.91
2022-10-08T00:04:20.147Z,101385.88
2022-10-08T00:06:54.753Z,101515.16
2022-10-08T00:09:23.799Z,101302.84
2022-10-08T00:11:50.778Z,101442.94
2022-10-08T00:14:17.863Z,101443.19
2022-10-08T00:16:50.566Z,101385.88
2022-10-08T00:19:26.295Z,101312.31
2022-10-08T00:22:13.165Z,101331.03
2022-10-08T00:24:55.818Z,101475.22
2022-10-08T00:27:28.883Z,101490.44
2022-10-08T00:30:06.805Z,101298.47
2022-10-08T00:32:34.991Z,101306.63
2022-10-08T00:35:11.628Z,101320.47
2022-10-08T00:37:48.736Z,101508.38
2022-10-08T00:40:48.973Z,101410.06
2022-10-08T00:43:42.434Z,101323.44
2022-10-08T00:49:28.208Z,101328.03
2022-10-08T00:52:01.529Z,101512.72
2022-10-08T00:54:47.941Z,101382.88
2022-10-08T00:57:28.636Z,101497.78
2022-10-08T01:00:13.002Z,101301.16
2022-10-08T01:02:43.630Z,101414.97
2022-10-08T01:05:24.852Z,101289.00
2022-10-08T01:08:03.237Z,101301.47
2022-10-08T01:10:51.669Z,101419.78
2022-10-08T01:13:45.736Z,101457.59
2022-10-08T01:16:47.410Z,101442.63
2022-10-08T01:19:57.997Z,101506.47
2022-10-08T01:22:50.193Z,101466.81
2022-10-08T01:29:03.344Z,101321.50
2022-10-08T01:31:47.800Z,101483.94
2022-10-08T01:34:37.583Z,101465.19
2022-10-08T01:40:00.613Z,101384.50
2022-10-08T01:42:35.006Z,101422.56
2022-10-08T01:45:19.558Z,101371.75
2022-10-08T01:47:51.399Z,101330.19
2022-10-08T01:50:33.235Z,101407.84
2022-10-08T01:53:19.530Z,101297.09
2022-10-08T01:55:50.870Z,101355.16
2022-10-08T01:58:36.654Z,101315.00
2022-10-08T02:01:40.965Z,101339.38
2022-10-08T02:04:12.590Z,101323.91
2022-10-08T02:07:06.693Z,101327.94
2022-10-08T02:09:50.540Z,101448.81
2022-10-08T02:12:18.502Z,101341.50
2022-10-08T02:15:01.470Z,101473.53
2022-10-08T02:17:45.155Z,101428.97
2022-10-08T02:20:20.889Z,101450.41
2022-10-08T02:22:59.461Z,101529.25
2022-10-08T02:25:36.201Z,101364.81
2022-10-08T02:28:24.624Z,101538.19
2022-10-08T02:31:18.989Z,101423.44
2022-10-08T02:33:56.966Z,101482.16
2022-10-08T02:36:31.763Z,101450.91
2022-10-08T02:41:49.299Z,101492.47
2022-10-08T02:44:41.112Z,101312.53
2022-10-08T02:47:21.863Z,101338.56
2022-10-08T02:49:59.359Z,101318.44
2022-10-08T02:52:35.303Z,101421.13
2022-10-08T02:55:25.557Z,101482.09
2022-10-08T02:58:21.248Z,101513.84
2022-10-08T03:01:02.589Z,101463.59
2022-10-08T03:03:57.833Z,101495.63
2022-10-08T03:06:39.487Z,101537.84
2022-10-08T03:09:16.479Z,101542.72
2022-10-08T03:11:47.273Z,101547.91
2022-10-08T03:14:25.310Z,101432.06
2022-10-08T03:17:00.472Z,101502.75
2022-10-08T03:19:28.177Z,101453.28
2022-10-08T03:22:10.221Z,101349.41
2022-10-08T03:24:42.073Z,101351.06
2022-10-08T03:27:13.955Z,101358.31
2022-10-08T03:29:41.602Z,101361.84
2022-10-08T03:32:14.016Z,101516.81
2022-10-08T03:34:42.600Z,101519.50
2022-10-08T03:37:22.560Z,101577.13
2022-10-08T03:40:02.286Z,101368.88
2022-10-08T03:42:49.661Z,101532.19
2022-10-08T03:45:25.957Z,101387.53
2022-10-08T03:47:56.206Z,101423.06
2022-10-08T03:50:25.661Z,101449.22
2022-10-08T03:53:17.866Z,101521.44
2022-10-08T03:55:47.916Z,101488.25
2022-10-08T03:58:31.729Z,101545.97
2022-10-08T04:01:05.046Z,101576.41
2022-10-08T04:06:19.796Z,101370.34
2022-10-08T04:11:40.594Z,101378.66
2022-10-08T04:14:13.999Z,101585.19
2022-10-08T04:16:54.021Z,101380.94
2022-10-08T04:19:30.089Z,101556.03
2022-10-08T04:22:02.211Z,101549.41
2022-10-08T04:24:34.235Z,101543.38
2022-10-08T04:27:05.699Z,101544.97
2022-10-08T04:29:36.839Z,101594.72
2022-10-08T04:32:07.217Z,101512.72
2022-10-08T04:34:44.422Z,101558.09
2022-10-08T04:37:21.522Z,101598.47
2022-10-08T04:40:05.184Z,101597.06
2022-10-08T04:42:35.381Z,101546.09
2022-10-08T04:45:11.869Z,101533.78
2022-10-08T04:47:46.375Z,101407.81
2022-10-08T04:53:24.665Z,101508.25
2022-10-08T04:56:09.024Z,101610.97
2022-10-08T04:58:46.101Z,101430.56
2022-10-08T05:01:17.611Z,101537.06
2022-10-08T05:03:53.903Z,101538.78
2022-10-08T05:06:33.749Z,101639.53
2022-10-08T05:09:26.673Z,101546.41
2022-10-08T05:12:43.281Z,101565.34
2022-10-08T05:15:46.781Z,101444.72
2022-10-08T05:18:53.333Z,101532.00
2022-10-08T05:21:55.681Z,101586.16
2022-10-08T05:24:31.126Z,101541.50
2022-10-08T05:27:26.927Z,101544.25
2022-10-08T05:30:04.420Z,101594.69
2022-10-08T05:32:47.261Z,101452.34
2022-10-08T05:35:30.652Z,101552.38
2022-10-08T05:38:02.633Z,101595.38
2022-10-08T05:40:35.269Z,101608.16
2022-10-08T05:43:12.561Z,101458.00
2022-10-08T05:45:50.251Z,101622.56
2022-10-08T05:48:17.008Z,101523.28
2022-10-08T05:50:47.774Z,101541.97
2022-10-08T05:53:17.597Z,101541.16
2022-10-08T05:55:44.485Z,101503.44
2022-10-08T05:58:11.204Z,101661.63
2022-10-08T06:00:40.281Z,101640.22
2022-10-08T06:03:07.278Z,101509.88
2022-10-08T06:05:34.147Z,101556.38
2022-10-08T06:08:03.054Z,101525.91
2022-10-08T06:10:29.821Z,101601.38
2022-10-08T06:12:56.631Z,101623.72
2022-10-08T06:15:23.545Z,101647.59
2022-10-08T06:17:51.507Z,101674.03
2022-10-08T06:20:18.198Z,101580.75
2022-10-08T06:22:45.374Z,101519.94
2022-10-08T06:25:14.627Z,101702.16
2022-10-08T06:27:41.485Z,101687.25
2022-10-08T06:30:10.307Z,101731.16
2022-10-08T06:32:43.429Z,101708.47
2022-10-08T06:35:15.321Z,101540.09
2022-10-08T06:41:07.050Z,101554.56
2022-10-08T06:44:09.820Z,101554.94
2022-10-08T06:47:29.062Z,101693.28
2022-10-08T06:56:55.688Z,101544.28
2022-10-08T06:59:31.582Z,101777.28
2022-10-08T07:02:16.749Z,101712.25
2022-10-08T07:07:43.976Z,101730.94
2022-10-08T07:11:01.351Z,101600.09
2022-10-08T07:13:39.220Z,101620.31
2022-10-08T07:16:45.982Z,101633.75
2022-10-08T07:19:19.830Z,101741.34
2022-10-08T07:22:33.029Z,101617.03
2022-10-08T07:25:30.123Z,101762.81
2022-10-08T07:28:29.229Z,101757.22
2022-10-08T07:31:42.049Z,101644.97
2022-10-08T07:37:08.451Z,101682.59
2022-10-08T07:42:55.956Z,101832.16
2022-10-08T07:48:47.682Z,101658.56
2022-10-08T07:51:32.990Z,101700.97
2022-10-08T07:54:10.052Z,101648.56
2022-10-08T07:56:53.352Z,101844.44
2022-10-08T07:59:23.536Z,101792.38
2022-10-08T08:01:55.656Z,101668.00
2022-10-08T08:04:45.816Z,101812.97
2022-10-08T08:07:15.415Z,101673.06
2022-10-08T08:09:51.973Z,101694.84
2022-10-08T08:12:22.765Z,101810.50
2022-10-08T08:14:59.656Z,101834.66
2022-10-08T08:17:38.412Z,101876.19
2022-10-08T08:20:20.847Z,101684.28
2022-10-08T08:26:57.516Z,101836.38
2022-10-08T08:29:43.452Z,101862.47
2022-10-08T08:32:52.462Z,101857.03
2022-10-08T08:35:52.748Z,101908.97
2022-10-08T08:38:26.028Z,101863.28
2022-10-08T08:41:04.119Z,101834.75
2022-10-08T08:44:20.627Z,101733.91
2022-10-08T08:47:00.018Z,101837.19
2022-10-08T08:49:57.685Z,101852.50
2022-10-08T08:52:52.443Z,101931.81
2022-10-08T09:02:29.343Z,101866.56
2022-10-08T09:15:17.142Z,101844.19
2022-10-08T09:21:22.645Z,101845.56
2022-10-08T09:42:26.892Z,101996.72
2022-10-08T09:45:34.967Z,102012.00
2022-10-08T09:48:38.475Z,102006.63
2022-10-08T09:51:21.613Z,101878.94
2022-10-08T09:57:03.394Z,101962.41
2022-10-08T09:59:58.857Z,101931.00
2022-10-08T10:02:51.060Z,101985.63
2022-10-08T10:05:31.418Z,101942.25
2022-10-08T10:08:38.386Z,102032.81
2022-10-08T10:12:18.088Z,101852.78
2022-10-08T10:14:59.515Z,101894.00
2022-10-08T10:17:48.732Z,102034.72
2022-10-08T10:20:50.442Z,102052.78
2022-10-08T10:24:32.099Z,101923.81
2022-10-08T10:27:34.404Z,101852.09
2022-10-08T10:30:24.790Z,101932.88
2022-10-08T10:33:05.306Z,101900.34
2022-10-08T10:36:03.969Z,101936.16
2022-10-08T10:38:43.088Z,102065.94
2022-10-08T10:41:25.117Z,102051.25
2022-10-08T10:43:55.337Z,102080.97
2022-10-08T10:46:45.870Z,102023.72
2022-10-08T10:49:25.930Z,101925.09
2022-10-08T10:52:05.346Z,101957.78
2022-10-08T10:55:05.108Z,102065.19
2022-10-08T10:58:11.555Z,102082.91
2022-10-08T11:01:26.437Z,102001.94
2022-10-08T11:07:41.146Z,102093.47
2022-10-08T11:14:10.399Z,101931.50
2022-10-08T11:17:11.907Z,101935.38
2022-10-08T11:20:19.767Z,102010.63
2022-10-08T11:23:23.124Z,101906.53
2022-10-08T11:29:06.159Z,102048.28
2022-10-08T11:31:57.776Z,101930.00
2022-10-08T11:34:36.436Z,102098.19
2022-10-08T11:37:28.143Z,102045.84
2022-10-08T11:40:34.472Z,102097.91
2022-10-08T11:43:47.746Z,102094.63
2022-10-08T11:52:59.402Z,101999.47
2022-10-08T11:55:51.514Z,101957.78
2022-10-08T11:58:33.993Z,101927.28
2022-10-08T12:01:09.830Z,102051.72
2022-10-08T12:10:44.563Z,102108.09
2022-10-08T12:13:49.229Z,102044.09
2022-10-08T12:17:15.296Z,102037.47
2022-10-08T12:20:29.059Z,102121.09
2022-10-08T12:23:40.087Z,102013.22
2022-10-08T12:26:18.836Z,102114.28
2022-10-08T12:37:16.807Z,101961.63
2022-10-08T12:43:24.635Z,101955.88
2022-10-08T12:49:30.328Z,102043.34
2022-10-08T12:55:00.882Z,102061.91
2022-10-08T12:57:53.826Z,102148.91
2022-10-08T13:00:40.274Z,102084.84
2022-10-08T13:03:28.660Z,101979.50
2022-10-08T13:06:36.930Z,102111.81
2022-10-08T13:10:00.846Z,102046.34
2022-10-08T13:15:57.520Z,101978.50
2022-10-08T13:21:45.965Z,101990.84
2022-10-08T13:25:02.479Z,102141.34
2022-10-08T13:27:54.197Z,102103.50
2022-10-08T13:30:56.127Z,102111.19
2022-10-08T13:33:49.785Z,102035.88
2022-10-08T13:49:48.317Z,102014.41
2022-10-08T13:58:35.522Z,102174.53
2022-10-08T14:01:39.317Z,102160.69
2022-10-08T14:08:28.769Z,102046.03
2022-10-08T14:11:34.079Z,102188.84
2022-10-08T14:14:24.735Z,102170.56
2022-10-08T14:17:00.670Z,102048.66
2022-10-08T14:19:55.029Z,102014.22
2022-10-08T14:22:42.694Z,102201.13
2022-10-08T14:28:37.412Z,102164.56
2022-10-08T14:31:40.711Z,102050.59
2022-10-08T14:34:11.124Z,102058.44
2022-10-08T14:37:03.008Z,102050.19
2022-10-08T14:42:37.755Z,102208.66
2022-10-08T14:45:36.924Z,102043.16
2022-10-08T14:48:15.773Z,102151.50
2022-10-08T14:50:48.629Z,102126.50
2022-10-08T14:53:24.257Z,102074.06
2022-10-08T14:56:11.571Z,102073.56
2022-10-08T14:59:14.070Z,102192.56
2022-10-08T15:17:20.654Z,102054.13
2022-10-08T15:22:51.865Z,102078.91
2022-10-08T15:28:48.030Z,102255.56
2022-10-08T15:51:40.975Z,102101.28
2022-10-08T15:54:13.898Z,102290.84
2022-10-08T16:01:08.254Z,102281.94
2022-10-08T16:04:20.420Z,102288.47
2022-10-08T16:11:01.503Z,102292.81
2022-10-08T16:14:14.751Z,102294.72
2022-10-08T16:17:08.851Z,102307.97
2022-10-08T16:19:53.573Z,102216.31
2022-10-08T16:22:27.007Z,102304.50
2022-10-08T16:31:18.069Z,102268.31
2022-10-08T16:37:27.915Z,102319.81
2022-10-08T16:40:34.477Z,102329.84
2022-10-08T18:31:14.866Z,102461.50
2022-10-08T18:45:10.223Z,102480.22
2022-10-08T18:55:41.542Z,102485.75
2022-10-08T19:05:50.482Z,102295.56
2022-10-08T20:15:08.421Z,102540.38
2022-10-08T20:55:31.131Z,102348.69
2022-10-08T20:58:47.750Z,102521.81
2022-10-08T21:01:24.471Z,102357.50
2022-10-08T21:04:01.818Z,102591.56
2022-10-08T21:06:43.631Z,102536.59
2022-10-08T21:12:02.170Z,102501.94
2022-10-08T21:15:09.200Z,102529.94
2022-10-08T21:17:51.112Z,102571.59
2022-10-08T21:20:43.781Z,102408.06
2022-10-08T21:23:28.901Z,102567.69
2022-10-08T21:26:22.306Z,102470.22
2022-10-08T21:29:13.796Z,102540.81
2022-10-08T21:32:10.877Z,102581.06
2022-10-08T21:35:05.192Z,102571.59
2022-10-08T21:40:34.335Z,102534.75
2022-10-08T21:43:11.793Z,102462.22
2022-10-08T21:46:03.767Z,102483.19
2022-10-08T21:58:49.174Z,102588.22
2022-10-08T22:02:01.950Z,102387.97
2022-10-08T22:05:14.483Z,102536.44
2022-10-08T22:08:41.624Z,102405.25
2022-10-08T22:15:18.832Z,102382.94
2022-10-08T22:18:09.437Z,102579.16
2022-10-08T22:20:41.332Z,102536.16
2022-10-08T22:23:43.791Z,102589.72
2022-10-08T22:29:39.141Z,102595.28
2022-10-08T22:32:20.050Z,102593.41
2022-10-08T22:38:50.558Z,102583.38
2022-10-08T22:44:56.513Z,102471.56
2022-10-08T22:47:42.409Z,102585.72
2022-10-08T22:50:48.981Z,102511.19
2022-10-08T22:57:16.753Z,102577.31
2022-10-08T23:10:08.001Z,102604.06
2022-10-08T23:14:04.837Z,102396.53
2022-10-08T23:16:15.918Z,102557.56
2022-10-08T23:22:28.218Z,102482.75
2022-10-08T23:28:26.343Z,102529.34
2022-10-08T23:31:13.152Z,102592.94
2022-10-08T23:34:09.658Z,102370.78
2022-10-08T23:43:29.492Z,102503.19
2022-10-08T23:49:18.157Z,102509.97
2022-10-08T23:52:09.311Z,102561.94
2022-10-08T23:57:29.838Z,102559.53
